createdAt,value
2022-12-25T00:01:32.956Z,10.43
2022-12-25T00:04:00.336Z,12.48
2022-12-25T00:06:28.124Z,13.77
2022-12-25T00:08:55.338Z,13.23
2022-12-25T00:11:22.920Z,13.10
2022-12-25T00:13:51.065Z,12.20
2022-12-25T00:16:23.526Z,13.75
2022-12-25T00:18:58.944Z,14.10
2022-12-25T00:21:27.294Z,13.40
2022-12-25T00:23:57.282Z,14.82
2022-12-25T00:26:26.550Z,14.73
2022-12-25T00:28:57.996Z,11.73
2022-12-25T00:31:26.515Z,14.25
2022-12-25T00:33:54.115Z,13.32
2022-12-25T00:36:23.721Z,13.32
2022-12-25T00:38:51.034Z,13.07
2022-12-25T00:41:41.298Z,11.77
2022-12-25T00:44:11.371Z,11.60
2022-12-25T00:46:39.104Z,13.02
2022-12-25T00:49:07.079Z,14.27
2022-12-25T00:51:34.687Z,15.13
2022-12-25T00:54:02.508Z,17.67
2022-12-25T00:56:30.117Z,17.08
2022-12-25T00:58:57.402Z,18.23
2022-12-25T01:01:25.023Z,19.70
2022-12-25T01:03:52.340Z,19.35
2022-12-25T01:06:19.842Z,20.05
2022-12-25T01:09:05.768Z,18.50
2022-12-25T01:11:33.505Z,19.25
2022-12-25T01:14:00.854Z,19.70
2022-12-25T01:16:29.416Z,17.75
2022-12-25T01:18:56.754Z,20.17
2022-12-25T01:21:24.633Z,19.17
2022-12-25T01:23:53.573Z,19.27
2022-12-25T01:26:25.583Z,18.58
2022-12-25T01:28:54.002Z,17.63
2022-12-25T01:31:24.739Z,18.75
2022-12-25T01:33:52.839Z,18.35
2022-12-25T01:36:24.995Z,19.73
2022-12-25T01:38:54.100Z,23.13
2022-12-25T01:41:24.768Z,23.85
2022-12-25T01:44:04.918Z,25.45
2022-12-25T01:46:33.945Z,23.80
2022-12-25T01:49:15.147Z,25.25
2022-12-25T01:51:46.571Z,22.70
2022-12-25T01:54:24.488Z,23.25
2022-12-25T01:56:57.558Z,22.58
2022-12-25T01:59:28.032Z,21.98
2022-12-25T02:01:57.163Z,23.77
2022-12-25T02:04:38.960Z,23.95
2022-12-25T02:07:24.437Z,25.08
2022-12-25T02:09:52.886Z,24.50
2022-12-25T02:12:23.820Z,25.40
2022-12-25T02:14:58.344Z,25.58
2022-12-25T02:17:33.093Z,24.52
2022-12-25T02:20:27.681Z,25.58
2022-12-25T02:23:31.886Z,25.90
2022-12-25T02:26:45.349Z,24.60
2022-12-25T02:29:42.615Z,23.80
2022-12-25T02:32:32.003Z,21.73
2022-12-25T02:35:08.656Z,21.83
2022-12-25T02:38:11.022Z,23.55
2022-12-25T02:40:46.479Z,23.80
2022-12-25T02:43:45.091Z,25.45
2022-12-25T02:46:36.616Z,24.15
2022-12-25T02:49:33.915Z,23.65
2022-12-25T02:52:35.418Z,22.88
2022-12-25T02:55:32.552Z,22.88
2022-12-25T02:58:27.272Z,21.85
2022-12-25T03:01:22.635Z,22.75
2022-12-25T03:04:15.271Z,22.60
2022-12-25T03:06:59.666Z,24.45
2022-12-25T03:09:54.079Z,23.40
2022-12-25T03:12:38.847Z,22.35
2022-12-25T03:15:28.626Z,21.45
2022-12-25T03:18:01.570Z,21.77
2022-12-25T03:20:49.103Z,20.77
2022-12-25T03:23:44.654Z,22.42
2022-12-25T03:26:30.932Z,22.15
2022-12-25T03:28:58.237Z,20.67
2022-12-25T03:31:51.544Z,21.73
2022-12-25T03:35:07.255Z,21.45
2022-12-25T03:38:23.431Z,19.85
2022-12-25T03:41:12.196Z,21.60
2022-12-25T03:44:26.551Z,19.70
2022-12-25T03:47:37.353Z,22.17
2022-12-25T03:50:36.717Z,20.38
2022-12-25T03:53:29.639Z,19.90
2022-12-25T03:56:17.686Z,20.35
2022-12-25T03:59:23.191Z,20.10
2022-12-25T04:02:10.870Z,19.63
2022-12-25T04:04:57.055Z,19.33
2022-12-25T04:07:43.313Z,19.83
2022-12-25T04:10:29.499Z,19.15
2022-12-25T04:13:15.560Z,19.90
2022-12-25T04:16:01.326Z,17.00
2022-12-25T04:18:47.434Z,17.63
2022-12-25T04:21:33.283Z,16.33
2022-12-25T04:24:19.525Z,16.70
2022-12-25T04:27:05.228Z,17.17
2022-12-25T04:29:51.054Z,17.23
2022-12-25T04:32:36.853Z,17.23
2022-12-25T04:35:23.335Z,18.48
2022-12-25T04:37:50.624Z,15.55
2022-12-25T04:40:19.257Z,16.13
2022-12-25T04:42:46.634Z,15.75
2022-12-25T04:45:14.131Z,16.73
2022-12-25T04:47:41.332Z,16.88
2022-12-25T04:50:09.450Z,14.63
2022-12-25T04:52:39.533Z,15.82
2022-12-25T04:55:10.074Z,14.50
2022-12-25T04:57:37.693Z,14.70
2022-12-25T05:00:07.170Z,15.80
2022-12-25T05:02:34.781Z,15.18
2022-12-25T05:05:02.559Z,16.13
2022-12-25T05:07:29.898Z,15.48
2022-12-25T05:09:58.337Z,14.18
2022-12-25T05:12:25.660Z,15.10
2022-12-25T05:14:53.191Z,14.30
2022-12-25T05:17:20.566Z,16.13
2022-12-25T05:19:48.089Z,17.40
2022-12-25T05:22:15.397Z,17.80
2022-12-25T05:24:42.899Z,17.70
2022-12-25T05:27:10.149Z,21.23
2022-12-25T05:29:37.688Z,21.83
2022-12-25T05:32:05.311Z,20.65
2022-12-25T05:34:33.008Z,19.13
2022-12-25T05:37:00.354Z,19.77
2022-12-25T05:39:27.857Z,19.63
2022-12-25T05:41:55.223Z,19.45
2022-12-25T05:44:23.032Z,19.77
2022-12-25T05:46:50.449Z,19.90
2022-12-25T05:49:18.112Z,19.25
2022-12-25T05:51:45.376Z,19.90
2022-12-25T05:54:12.938Z,20.25
2022-12-25T05:56:40.145Z,19.15
2022-12-25T05:59:07.644Z,20.27
2022-12-25T06:01:34.973Z,20.95
2022-12-25T06:04:05.807Z,22.20
2022-12-25T06:06:37.556Z,21.98
2022-12-25T06:09:05.022Z,23.90
2022-12-25T06:11:32.275Z,23.75
2022-12-25T06:13:59.774Z,23.63
2022-12-25T06:16:27.078Z,22.45
2022-12-25T06:18:54.647Z,25.48
2022-12-25T06:21:22.122Z,23.90
2022-12-25T06:23:49.838Z,25.88
2022-12-25T06:26:19.549Z,25.73
2022-12-25T06:28:47.997Z,23.67
2022-12-25T06:31:20.888Z,21.67
2022-12-25T06:33:49.812Z,22.55
2022-12-25T06:36:22.806Z,23.23
2022-12-25T06:38:51.100Z,22.05
2022-12-25T06:41:25.489Z,21.00
2022-12-25T06:43:58.124Z,23.65
2022-12-25T06:46:28.639Z,23.73
2022-12-25T06:48:58.210Z,22.77
2022-12-25T06:51:30.166Z,24.85
2022-12-25T06:53:59.014Z,21.92
2022-12-25T06:56:28.641Z,23.75
2022-12-25T06:59:02.758Z,23.63
2022-12-25T07:02:12.875Z,24.00
2022-12-25T07:04:43.172Z,25.13
2022-12-25T07:07:10.860Z,25.50
2022-12-25T07:09:39.359Z,27.05
2022-12-25T07:12:19.960Z,23.27
2022-12-25T07:14:50.187Z,23.98
2022-12-25T07:17:18.933Z,19.90
2022-12-25T07:19:47.464Z,23.90
2022-12-25T07:22:15.845Z,24.23
2022-12-25T07:24:43.450Z,22.83
2022-12-25T07:27:11.091Z,21.17
2022-12-25T07:29:38.654Z,22.90
2022-12-25T07:32:07.033Z,24.55
2022-12-25T07:34:34.665Z,22.38
2022-12-25T07:37:02.011Z,22.10
2022-12-25T07:39:29.555Z,25.05
2022-12-25T07:41:56.886Z,21.30
2022-12-25T07:44:24.836Z,24.30
2022-12-25T07:46:52.125Z,23.02
2022-12-25T07:49:19.873Z,22.42
2022-12-25T07:51:47.167Z,21.75
2022-12-25T07:54:14.777Z,24.75
2022-12-25T07:56:41.975Z,25.13
2022-12-25T07:59:09.472Z,24.48
2022-12-25T08:01:36.830Z,23.50
2022-12-25T08:04:04.632Z,22.60
2022-12-25T08:06:35.208Z,23.42
2022-12-25T08:09:09.652Z,22.92
2022-12-25T08:11:38.461Z,22.95
2022-12-25T08:14:08.787Z,22.17
2022-12-25T08:16:39.966Z,22.55
2022-12-25T08:19:08.594Z,21.00
2022-12-25T08:21:36.263Z,22.83
2022-12-25T08:24:03.875Z,22.90
2022-12-25T08:26:31.528Z,22.73
2022-12-25T08:28:59.006Z,23.70
2022-12-25T08:31:30.018Z,21.90
2022-12-25T08:33:58.719Z,21.33
2022-12-25T08:36:26.384Z,22.88
2022-12-25T08:39:00.355Z,20.75
2022-12-25T08:41:30.231Z,20.38
2022-12-25T08:43:57.984Z,19.90
2022-12-25T08:46:25.579Z,18.20
2022-12-25T08:48:52.855Z,17.60
2022-12-25T08:51:23.416Z,19.27
2022-12-25T08:53:53.245Z,16.52
2022-12-25T08:56:21.233Z,16.60
2022-12-25T08:58:48.461Z,15.88
2022-12-25T09:01:15.989Z,15.63
2022-12-25T09:03:43.885Z,17.15
2022-12-25T09:06:16.562Z,17.33
2022-12-25T09:08:49.273Z,17.73
2022-12-25T09:11:19.967Z,15.27
2022-12-25T09:13:48.981Z,15.70
2022-12-25T09:16:21.232Z,15.43
2022-12-25T09:18:49.482Z,13.60
2022-12-25T09:21:19.255Z,13.82
2022-12-25T09:23:46.537Z,13.40
2022-12-25T09:26:18.063Z,12.63
2022-12-25T09:28:51.184Z,11.68
2022-12-25T09:31:22.059Z,12.10
2022-12-25T09:33:50.834Z,11.23
2022-12-25T09:36:18.794Z,9.73
2022-12-25T09:38:46.039Z,11.18
2022-12-25T09:41:53.760Z,8.93
2022-12-25T09:44:38.015Z,10.43
2022-12-25T09:47:14.336Z,11.13
2022-12-25T09:49:54.424Z,9.30
2022-12-25T09:52:52.790Z,10.30
2022-12-25T09:55:26.928Z,10.48
2022-12-25T09:58:01.573Z,10.65
2022-12-25T10:00:59.768Z,9.50
2022-12-25T10:03:40.785Z,9.63
2022-12-25T10:06:25.271Z,9.32
2022-12-25T10:09:36.077Z,10.50
2022-12-25T10:12:55.042Z,9.18
2022-12-25T10:15:59.020Z,8.27
2022-12-25T10:18:57.128Z,9.10
2022-12-25T10:21:25.408Z,9.35
2022-12-25T10:23:58.744Z,9.90
2022-12-25T10:26:30.018Z,8.85
2022-12-25T10:29:13.300Z,9.43
2022-12-25T10:31:45.432Z,9.45
2022-12-25T10:34:15.297Z,10.50
2022-12-25T10:36:46.402Z,10.02
2022-12-25T10:39:26.590Z,8.93
2022-12-25T10:42:40.597Z,9.00
2022-12-25T10:45:09.931Z,9.07
2022-12-25T10:47:42.667Z,11.45
2022-12-25T10:50:21.457Z,10.48
2022-12-25T10:53:04.443Z,10.18
2022-12-25T10:55:33.379Z,11.18
2022-12-25T10:58:02.306Z,11.93
2022-12-25T11:00:33.122Z,11.70
2022-12-25T11:03:01.149Z,10.27
2022-12-25T11:05:36.534Z,9.00
2022-12-25T11:08:15.766Z,8.35
2022-12-25T11:10:44.170Z,8.40
2022-12-25T11:13:30.784Z,7.63
2022-12-25T11:16:11.979Z,9.05
2022-12-25T11:18:53.773Z,8.30
2022-12-25T11:21:32.171Z,8.30
2022-12-25T11:24:06.925Z,7.55
2022-12-25T11:26:49.700Z,7.60
2022-12-25T11:29:39.018Z,7.45
2022-12-25T11:32:19.468Z,7.10
2022-12-25T11:34:49.184Z,7.80
2022-12-25T11:37:41.962Z,7.65
2022-12-25T11:40:41.719Z,7.82
2022-12-25T11:43:48.725Z,8.43
2022-12-25T11:46:31.388Z,8.75
2022-12-25T11:49:08.313Z,7.47
2022-12-25T11:51:43.610Z,9.15
2022-12-25T11:54:10.853Z,8.50
2022-12-25T11:56:38.763Z,7.95
2022-12-25T11:59:37.392Z,8.07
2022-12-25T12:02:49.637Z,8.57
2022-12-25T12:05:17.337Z,7.68
2022-12-25T12:08:06.475Z,7.10
2022-12-25T12:11:18.407Z,7.40
2022-12-25T12:14:14.985Z,7.30
2022-12-25T12:16:42.435Z,7.38
2022-12-25T12:19:34.581Z,7.60
2022-12-25T12:22:05.152Z,7.70
2022-12-25T12:24:44.305Z,7.40
2022-12-25T12:27:27.911Z,7.85
2022-12-25T12:29:59.787Z,7.38
2022-12-25T12:32:43.177Z,6.97
2022-12-25T12:35:28.020Z,7.13
2022-12-25T12:38:17.170Z,7.05
2022-12-25T12:41:04.748Z,6.13
2022-12-25T12:43:39.043Z,6.18
2022-12-25T12:46:31.571Z,6.40
2022-12-25T12:49:35.145Z,6.68
2022-12-25T12:52:23.914Z,5.80
2022-12-25T12:54:59.233Z,5.55
2022-12-25T12:57:32.828Z,6.15
2022-12-25T13:00:08.691Z,5.55
2022-12-25T13:03:06.136Z,5.95
2022-12-25T13:05:46.246Z,5.07
2022-12-25T13:09:15.849Z,5.10
2022-12-25T13:11:44.802Z,5.90
2022-12-25T13:14:23.182Z,5.40
2022-12-25T13:16:54.818Z,6.32
2022-12-25T13:19:27.538Z,5.95
2022-12-25T13:22:01.983Z,5.53
2022-12-25T13:24:34.230Z,5.63
2022-12-25T13:27:26.730Z,6.03
2022-12-25T13:29:54.597Z,5.90
2022-12-25T13:32:34.158Z,6.25
2022-12-25T13:35:02.340Z,6.85
2022-12-25T13:37:31.893Z,6.78
2022-12-25T13:40:07.298Z,6.88
2022-12-25T13:42:40.142Z,6.57
2022-12-25T13:45:14.531Z,7.10
2022-12-25T13:48:01.885Z,6.28
2022-12-25T13:50:34.647Z,6.50
2022-12-25T13:53:16.615Z,7.90
2022-12-25T13:55:55.524Z,8.25
2022-12-25T13:58:30.888Z,9.60
2022-12-25T14:01:03.063Z,9.82
2022-12-25T14:03:46.577Z,9.32
2022-12-25T14:06:20.655Z,10.65
2022-12-25T14:08:50.348Z,9.70
2022-12-25T14:11:25.780Z,10.00
2022-12-25T14:14:03.211Z,9.02
2022-12-25T14:16:32.744Z,9.23
2022-12-25T14:19:02.951Z,9.60
2022-12-25T14:21:41.857Z,9.90
2022-12-25T14:24:17.353Z,9.38
2022-12-25T14:26:45.135Z,9.40
2022-12-25T14:29:20.446Z,10.10
2022-12-25T14:31:50.190Z,10.35
2022-12-25T14:34:27.595Z,10.93
2022-12-25T14:36:55.568Z,10.48
2022-12-25T14:39:35.202Z,10.63
2022-12-25T14:42:20.693Z,10.75
2022-12-25T14:45:35.953Z,11.18
2022-12-25T14:48:25.461Z,10.70
2022-12-25T14:51:30.602Z,13.20
2022-12-25T14:54:03.368Z,14.43
2022-12-25T14:56:39.276Z,14.50
2022-12-25T14:59:10.292Z,12.95
2022-12-25T15:01:41.561Z,12.63
2022-12-25T15:04:12.117Z,11.43
2022-12-25T15:06:51.752Z,11.75
2022-12-25T15:09:19.527Z,12.00
2022-12-25T15:11:56.405Z,11.55
2022-12-25T15:14:26.215Z,12.52
2022-12-25T15:17:01.370Z,12.95
2022-12-25T15:19:38.869Z,15.15
2022-12-25T15:22:06.717Z,16.33
2022-12-25T15:24:34.252Z,14.05
2022-12-25T15:27:01.677Z,17.60
2022-12-25T15:30:07.976Z,16.48
2022-12-25T15:32:20.675Z,16.23
2022-12-25T15:34:50.050Z,16.02
2022-12-25T15:37:20.484Z,16.70
2022-12-25T15:39:47.978Z,16.27
2022-12-25T15:42:21.746Z,13.75
2022-12-25T15:44:49.966Z,15.43
2022-12-25T15:47:20.269Z,14.55
2022-12-25T15:49:47.976Z,13.73
2022-12-25T15:52:17.661Z,13.45
2022-12-25T15:54:45.460Z,12.40
2022-12-25T15:57:23.139Z,11.80
2022-12-25T15:59:50.660Z,12.10
2022-12-25T16:02:20.848Z,13.00
2022-12-25T16:04:51.080Z,10.70
2022-12-25T16:07:23.594Z,11.02
2022-12-25T16:09:52.014Z,9.60
2022-12-25T16:12:19.970Z,9.93
2022-12-25T16:14:47.532Z,12.25
2022-12-25T16:17:17.170Z,9.95
2022-12-25T16:19:45.545Z,12.52
2022-12-25T16:22:18.605Z,10.07
2022-12-25T16:24:51.908Z,10.85
2022-12-25T16:27:19.163Z,12.35
2022-12-25T16:29:47.226Z,13.40
2022-12-25T16:32:15.966Z,12.68
2022-12-25T16:34:43.671Z,12.63
2022-12-25T16:37:10.949Z,11.52
2022-12-25T16:39:38.580Z,11.27
2022-12-25T16:42:06.008Z,12.30
2022-12-25T16:44:37.611Z,11.55
2022-12-25T16:47:04.961Z,13.63
2022-12-25T16:49:32.644Z,14.55
2022-12-25T16:51:59.886Z,13.38
2022-12-25T16:54:27.528Z,16.88
2022-12-25T16:56:54.766Z,17.55
2022-12-25T16:59:22.359Z,19.45
2022-12-25T17:01:49.721Z,23.27
2022-12-25T17:04:17.350Z,26.80
2022-12-25T17:06:44.604Z,24.25
2022-12-25T17:09:12.386Z,22.13
2022-12-25T17:11:39.801Z,21.98
2022-12-25T17:14:07.430Z,19.60
2022-12-25T17:16:38.158Z,18.60
2022-12-25T17:19:15.967Z,19.77
2022-12-25T17:21:43.359Z,18.77
2022-12-25T17:24:10.975Z,17.10
2022-12-25T17:26:40.750Z,17.23
2022-12-25T17:29:10.327Z,17.10
2022-12-25T17:31:39.586Z,16.58
2022-12-25T17:34:09.108Z,17.10
2022-12-25T17:36:37.132Z,17.40
2022-12-25T17:39:06.439Z,16.92
2022-12-25T17:41:34.526Z,17.50
2022-12-25T17:44:02.613Z,15.90
2022-12-25T17:46:31.539Z,15.55
2022-12-25T17:49:01.191Z,16.95
2022-12-25T17:51:30.990Z,16.35
2022-12-25T17:54:03.354Z,15.10
2022-12-25T17:56:32.476Z,15.80
2022-12-25T17:59:08.212Z,17.08
2022-12-25T18:01:38.852Z,17.27
2022-12-25T18:04:07.375Z,16.77
2022-12-25T18:06:36.665Z,16.25
2022-12-25T18:09:06.386Z,14.25
2022-12-25T18:11:34.018Z,16.05
2022-12-25T18:14:07.343Z,17.08
2022-12-25T18:16:38.512Z,18.50
2022-12-25T18:19:06.813Z,19.10
2022-12-25T18:21:34.270Z,18.30
2022-12-25T18:24:06.445Z,20.40
2022-12-25T18:26:34.295Z,19.27
2022-12-25T18:29:02.328Z,18.70
2022-12-25T18:31:32.822Z,20.80
2022-12-25T18:34:00.816Z,23.58
2022-12-25T18:36:30.045Z,22.35
2022-12-25T18:38:58.933Z,26.95
2022-12-25T18:41:28.828Z,23.00
2022-12-25T18:43:59.829Z,19.40
2022-12-25T18:46:28.061Z,21.08
2022-12-25T18:48:57.193Z,19.73
2022-12-25T18:51:27.691Z,20.08
2022-12-25T18:53:58.809Z,19.05
2022-12-25T18:56:26.127Z,19.48
2022-12-25T18:58:53.628Z,19.25
2022-12-25T19:01:23.836Z,19.70
2022-12-25T19:03:56.066Z,18.98
2022-12-25T19:06:32.701Z,18.48
2022-12-25T19:09:00.334Z,26.75
2022-12-25T19:11:27.684Z,23.88
2022-12-25T19:13:56.035Z,19.50
2022-12-25T19:16:23.368Z,19.88
2022-12-25T19:18:50.993Z,19.55
2022-12-25T19:21:18.245Z,18.05
2022-12-25T19:23:45.972Z,18.63
2022-12-25T19:26:13.294Z,19.55
2022-12-25T19:28:41.488Z,18.73
2022-12-25T19:31:10.132Z,19.38
2022-12-25T19:33:40.470Z,19.65
2022-12-25T19:36:12.852Z,19.08
2022-12-25T19:38:40.974Z,19.48
2022-12-25T19:41:17.828Z,20.52
2022-12-25T19:43:48.196Z,20.10
2022-12-25T19:46:26.282Z,18.52
2022-12-25T19:48:56.307Z,18.52
2022-12-25T19:51:29.056Z,18.85
2022-12-25T19:53:57.098Z,19.65
2022-12-25T19:56:26.784Z,19.02
2022-12-25T19:58:55.775Z,17.77
2022-12-25T20:01:27.436Z,18.63
2022-12-25T20:03:55.763Z,18.33
2022-12-25T20:06:32.852Z,17.73
2022-12-25T20:09:07.410Z,18.17
2022-12-25T20:11:37.304Z,18.15
2022-12-25T20:14:07.355Z,19.05
2022-12-25T20:16:38.743Z,18.63
2022-12-25T20:19:07.723Z,18.10
2022-12-25T20:21:35.432Z,18.17
2022-12-25T20:24:03.255Z,18.02
2022-12-25T20:26:32.392Z,16.52
2022-12-25T20:29:00.123Z,17.48
2022-12-25T20:31:31.343Z,18.77
2022-12-25T20:34:06.083Z,18.08
2022-12-25T20:36:37.760Z,18.85
2022-12-25T20:39:09.997Z,18.92
2022-12-25T20:41:39.742Z,18.83
2022-12-25T20:44:10.381Z,18.35
2022-12-25T20:46:38.192Z,19.48
2022-12-25T20:49:06.094Z,18.25
2022-12-25T20:51:33.605Z,19.75
2022-12-25T20:54:06.508Z,19.58
2022-12-25T20:56:34.405Z,19.40
2022-12-25T20:59:02.952Z,18.92
2022-12-25T21:01:31.885Z,18.88
2022-12-25T21:03:59.723Z,18.10
2022-12-25T21:06:27.296Z,17.35
2022-12-25T21:08:55.008Z,18.80
2022-12-25T21:11:22.781Z,17.98
2022-12-25T21:13:50.814Z,17.50
2022-12-25T21:16:22.361Z,18.80
2022-12-25T21:18:53.261Z,18.77
2022-12-25T21:21:21.925Z,19.65
2022-12-25T21:23:49.685Z,19.77
2022-12-25T21:26:28.989Z,18.40
2022-12-25T21:29:00.564Z,18.17
2022-12-25T21:31:29.148Z,18.60
2022-12-25T21:33:57.941Z,18.98
2022-12-25T21:36:34.612Z,17.35
2022-12-25T21:39:10.837Z,17.70
2022-12-25T21:41:39.543Z,19.77
2022-12-25T21:44:08.842Z,18.05
2022-12-25T21:46:36.216Z,18.67
2022-12-25T21:49:04.254Z,19.60
2022-12-25T21:51:52.796Z,18.67
2022-12-25T21:54:23.104Z,19.13
2022-12-25T21:56:50.983Z,18.98
2022-12-25T21:59:21.831Z,19.17
2022-12-25T22:01:51.817Z,18.80
2022-12-25T22:04:23.337Z,17.85
2022-12-25T22:07:09.471Z,19.48
2022-12-25T22:09:37.865Z,18.92
2022-12-25T22:12:28.565Z,19.77
2022-12-25T22:15:06.353Z,19.25
2022-12-25T22:17:58.511Z,19.85
2022-12-25T22:20:38.200Z,18.98
2022-12-25T22:23:05.984Z,20.25
2022-12-25T22:25:33.661Z,19.38
2022-12-25T22:28:00.999Z,20.17
2022-12-25T22:30:29.778Z,19.60
2022-12-25T22:32:57.587Z,19.17
2022-12-25T22:35:25.727Z,20.95
2022-12-25T22:37:54.254Z,20.00
2022-12-25T22:40:22.668Z,19.20
2022-12-25T22:42:54.032Z,20.42
2022-12-25T22:45:21.882Z,21.65
2022-12-25T22:47:50.281Z,20.00
2022-12-25T22:50:18.025Z,20.80
2022-12-25T22:52:46.694Z,20.95
2022-12-25T22:55:18.631Z,19.10
2022-12-25T22:57:46.211Z,20.60
2022-12-25T23:00:14.288Z,20.60
2022-12-25T23:02:41.792Z,21.08
2022-12-25T23:05:09.673Z,22.38
2022-12-25T23:07:37.083Z,20.00
2022-12-25T23:10:06.777Z,18.15
2022-12-25T23:12:53.004Z,21.52
2022-12-25T23:15:20.648Z,21.80
2022-12-25T23:18:06.632Z,21.00
2022-12-25T23:20:52.974Z,21.05
2022-12-25T23:23:38.810Z,20.27
2022-12-25T23:26:09.652Z,20.42
2022-12-25T23:29:01.030Z,20.15
2022-12-25T23:31:36.909Z,19.02
2022-12-25T23:34:06.735Z,21.38
2022-12-25T23:36:35.136Z,21.42
2022-12-25T23:39:09.692Z,20.08
2022-12-25T23:41:40.491Z,19.83
2022-12-25T23:44:10.256Z,21.75
2022-12-25T23:46:38.784Z,21.85
2022-12-25T23:49:06.952Z,19.10
2022-12-25T23:51:43.633Z,20.73
2022-12-25T23:54:18.679Z,20.15
2022-12-25T23:56:46.458Z,20.70
2022-12-25T23:59:14.695Z,21.08
